Observation data for Northfield on 01/20/2019      Previous  Date  Next       Current Mesonet Observations  Soil Data  Daily Summary Page  Observations in Plain Language
KNOR 200600Z 14004KT M02/M08 A3032 RMK A01 T10231080  RH  065%=      5-min Rain = 0
KNOR 200605Z 17004KT M03/M08 A3033 RMK A01 T10301081  RH  068%=      5-min Rain = 0
KNOR 200610Z 17004KT M03/M08 A3033 RMK A01 T10321082  RH  069%=      5-min Rain = 0
KNOR 200615Z 18004KT M03/M08 A3034 RMK A01 T10281082  RH  066%=      5-min Rain = 0
KNOR 200620Z 17003KT M03/M08 A3034 RMK A01 T10331083  RH  068%=      5-min Rain = 0
KNOR 200625Z 16003KT M03/M08 A3035 RMK A01 T10291083  RH  066%=      5-min Rain = 0
KNOR 200630Z 17003KT M03/M08 A3035 RMK A01 T10251084  RH  064%=      5-min Rain = 0
KNOR 200635Z 17004KT M03/M08 A3034 RMK A01 T10281084  RH  065%=      5-min Rain = 0
KNOR 200640Z 16005KT M03/M08 A3033 RMK A01 T10311083  RH  067%=      5-min Rain = 0
KNOR 200645Z 17006KT M03/M08 A3033 RMK A01 T10321082  RH  068%=      5-min Rain = 0
KNOR 200650Z 16006KT M04/M08 A3033 RMK A01 T10361082  RH  070%=      5-min Rain = 0
KNOR 200655Z 17005KT M04/M08 A3033 RMK A01 T10351080  RH  071%=      5-min Rain = 0
KNOR 200700Z 16005KT M03/M08 A3033 RMK A01 T10331079  RH  070%=      5-min Rain = 0
KNOR 200705Z 16004KT M03/M08 A3034 RMK A01 T10291079  RH  068%=      5-min Rain = 0
KNOR 200710Z 16005KT M03/M08 A3033 RMK A01 T10281080  RH  067%=      5-min Rain = 0
KNOR 200715Z 17005KT M03/M08 A3033 RMK A01 T10281080  RH  067%=      5-min Rain = 0
KNOR 200720Z 15005KT M03/M08 A3033 RMK A01 T10311081  RH  069%=      5-min Rain = 0
KNOR 200725Z 15006KT M03/M08 A3033 RMK A01 T10321081  RH  069%=      5-min Rain = 0
KNOR 200730Z 16006KT M03/M08 A3033 RMK A01 T10321081  RH  069%=      5-min Rain = 0
KNOR 200735Z 17004KT M03/M08 A3034 RMK A01 T10331081  RH  069%=      5-min Rain = 0
KNOR 200740Z 18005KT M03/M08 A3034 RMK A01 T10331082  RH  069%=      5-min Rain = 0
KNOR 200745Z 18005KT M04/M08 A3033 RMK A01 T10371083  RH  070%=      5-min Rain = 0
KNOR 200750Z 17006KT M04/M08 A3033 RMK A01 T10391082  RH  072%=      5-min Rain = 0
KNOR 200755Z 18005KT M04/M08 A3033 RMK A01 T10401082  RH  073%=      5-min Rain = 0
KNOR 200800Z 17006KT M04/M08 A3033 RMK A01 T10411082  RH  073%=      5-min Rain = 0
KNOR 200805Z 17006KT M04/M08 A3033 RMK A01 T10411082  RH  073%=      5-min Rain = 0
KNOR 200810Z 17007KT M04/M08 A3033 RMK A01 T10411082  RH  073%=      5-min Rain = 0
KNOR 200815Z 17006KT M04/M08 A3033 RMK A01 T10411081  RH  073%=      5-min Rain = 0
KNOR 200820Z 17006KT M04/M08 A3033 RMK A01 T10401081  RH  073%=      5-min Rain = 0
KNOR 200825Z 17004KT M04/M08 A3034 RMK A01 T10411082  RH  073%=      5-min Rain = 0
KNOR 200830Z 17004KT M04/M08 A3034 RMK A01 T10381082  RH  071%=      5-min Rain = 0
KNOR 200835Z 17004KT M04/M08 A3034 RMK A01 T10361083  RH  070%=      5-min Rain = 0
KNOR 200840Z 15004KT M03/M08 A3034 RMK A01 T10321083  RH  068%=      5-min Rain = 0
KNOR 200845Z 16005KT M03/M08 A3033 RMK A01 T10311084  RH  066%=      5-min Rain = 0
KNOR 200850Z 16006KT M03/M08 A3033 RMK A01 T10311084  RH  067%=      5-min Rain = 0
KNOR 200855Z 16006KT M04/M09 A3033 RMK A01 T10351085  RH  068%=      5-min Rain = 0
KNOR 200900Z 16006KT M04/M09 A3033 RMK A01 T10361085  RH  068%=      5-min Rain = 0
KNOR 200905Z 16006KT M04/M09 A3033 RMK A01 T10351085  RH  068%=      5-min Rain = 0
KNOR 200910Z 16006KT M04/M08 A3033 RMK A01 T10361084  RH  069%=      5-min Rain = 0
KNOR 200915Z 16007KT M04/M08 A3033 RMK A01 T10361083  RH  069%=      5-min Rain = 0
KNOR 200920Z 17007KT M04/M08 A3033 RMK A01 T10361082  RH  070%=      5-min Rain = 0
KNOR 200925Z 17006KT M04/M08 A3033 RMK A01 T10371081  RH  071%=      5-min Rain = 0
KNOR 200930Z 17005KT M04/M08 A3033 RMK A01 T10381081  RH  072%=      5-min Rain = 0
KNOR 200935Z 18005KT M04/M08 A3033 RMK A01 T10371081  RH  072%=      5-min Rain = 0
KNOR 200940Z 18005KT M04/M08 A3033 RMK A01 T10391082  RH  072%=      5-min Rain = 0
KNOR 200945Z 18006KT M04/M08 A3033 RMK A01 T10411083  RH  072%=      5-min Rain = 0
KNOR 200950Z 18007KT M04/M08 A3033 RMK A01 T10431083  RH  074%=      5-min Rain = 0
KNOR 200955Z 19006KT M04/M08 A3032 RMK A01 T10441082  RH  074%=      5-min Rain = 0
KNOR 201000Z 19006KT M04/M08 A3032 RMK A01 T10441083  RH  074%=      5-min Rain = 0
KNOR 201005Z 19006KT M05/M08 A3032 RMK A01 T10451083  RH  074%=      5-min Rain = 0
KNOR 201010Z 19004KT M04/M08 A3032 RMK A01 T10441083  RH  074%=      5-min Rain = 0
KNOR 201015Z 19004KT M04/M08 A3032 RMK A01 T10431083  RH  073%=      5-min Rain = 0
KNOR 201020Z 21005KT M04/M08 A3032 RMK A01 T10441084  RH  074%=      5-min Rain = 0
KNOR 201025Z 21006KT M05/M09 A3032 RMK A01 T10481085  RH  076%=      5-min Rain = 0
KNOR 201030Z 21006KT M05/M08 A3032 RMK A01 T10501084  RH  077%=      5-min Rain = 0
KNOR 201035Z 21006KT M05/M08 A3031 RMK A01 T10501083  RH  078%=      5-min Rain = 0
KNOR 201040Z 21006KT M05/M08 A3031 RMK A01 T10491083  RH  077%=      5-min Rain = 0
KNOR 201045Z 20004KT M05/M08 A303 RMK A01 T10491083  RH  077%=      5-min Rain = 0
KNOR 201050Z 21004KT M05/M08 A303 RMK A01 T10481083  RH  076%=      5-min Rain = 0
KNOR 201055Z 23004KT M05/M08 A303 RMK A01 T10471084  RH  075%=      5-min Rain = 0
KNOR 201100Z 24004KT M05/M09 A303 RMK A01 T10501085  RH  076%=      5-min Rain = 0
KNOR 201105Z 24003KT M05/M08 A303 RMK A01 T10511084  RH  078%=      5-min Rain = 0
KNOR 201110Z 23004KT M05/M08 A303 RMK A01 T10511084  RH  078%=      5-min Rain = 0
KNOR 201115Z 22004KT M05/M09 A303 RMK A01 T10531085  RH  078%=      5-min Rain = 0
KNOR 201120Z 21004KT M05/M08 A303 RMK A01 T10531084  RH  078%=      5-min Rain = 0
KNOR 201125Z 20005KT M05/M08 A3029 RMK A01 T10531084  RH  078%=      5-min Rain = 0
KNOR 201130Z 20005KT M05/M08 A3029 RMK A01 T10521084  RH  078%=      5-min Rain = 0
KNOR 201135Z 20004KT M05/M09 A3029 RMK A01 T10521085  RH  078%=      5-min Rain = 0
KNOR 201140Z 19005KT M05/M08 A3029 RMK A01 T10491083  RH  077%=      5-min Rain = 0
KNOR 201145Z 20005KT M05/M08 A3029 RMK A01 T10471082  RH  077%=      5-min Rain = 0
KNOR 201150Z 19004KT M05/M08 A3028 RMK A01 T10461081  RH  077%=      5-min Rain = 0
KNOR 201155Z 20005KT M05/M08 A3028 RMK A01 T10461081  RH  077%=      5-min Rain = 0
KNOR 201200Z 22005KT M05/M08 A3028 RMK A01 T10481080  RH  078%=      5-min Rain = 0
KNOR 201205Z 22005KT M05/M08 A3028 RMK A01 T10501081  RH  079%=      5-min Rain = 0
KNOR 201210Z 22005KT M05/M08 A3028 RMK A01 T10501079  RH  080%=      5-min Rain = 0
KNOR 201215Z 22006KT M05/M08 A3028 RMK A01 T10481076  RH  080%=      5-min Rain = 0
KNOR 201220Z 21005KT M05/M08 A3028 RMK A01 T10471076  RH  080%=      5-min Rain = 0
KNOR 201225Z 20005KT M05/M08 A3028 RMK A01 T10481077  RH  080%=      5-min Rain = 0
KNOR 201230Z 20006KT M05/M08 A3029 RMK A01 T10491077  RH  080%=      5-min Rain = 0
KNOR 201235Z 19006KT M05/M08 A3029 RMK A01 T10471077  RH  079%=      5-min Rain = 0
KNOR 201240Z 19005KT M05/M08 A3028 RMK A01 T10451078  RH  078%=      5-min Rain = 0
KNOR 201245Z 19006KT M05/M08 A3028 RMK A01 T10451079  RH  077%=      5-min Rain = 0
KNOR 201250Z 19006KT M05/M08 A3028 RMK A01 T10451079  RH  077%=      5-min Rain = 0
KNOR 201255Z 19006KT M05/M08 A3028 RMK A01 T10451080  RH  077%=      5-min Rain = 0
KNOR 201300Z 19007KT M05/M08 A3028 RMK A01 T10461079  RH  077%=      5-min Rain = 0
KNOR 201305Z 19006KT M05/M08 A3028 RMK A01 T10451078  RH  077%=      5-min Rain = 0
KNOR 201310Z 19006KT M05/M08 A3028 RMK A01 T10451078  RH  078%=      5-min Rain = 0
KNOR 201315Z 20007KT M04/M08 A3028 RMK A01 T10441078  RH  077%=      5-min Rain = 0
KNOR 201320Z 21007KT M04/M08 A3028 RMK A01 T10421077  RH  077%=      5-min Rain = 0
KNOR 201325Z 20007KT M04/M08 A3028 RMK A01 T10421076  RH  077%=      5-min Rain = 0
KNOR 201330Z 21006KT M04/M08 A3028 RMK A01 T10411076  RH  076%=      5-min Rain = 0
KNOR 201335Z 21005KT M04/M08 A3028 RMK A01 T10411077  RH  076%=      5-min Rain = 0
KNOR 201340Z 21004KT M04/M08 A3028 RMK A01 T10411077  RH  076%=      5-min Rain = 0
KNOR 201345Z 21004KT M04/M08 A3028 RMK A01 T10411078  RH  076%=      5-min Rain = 0
KNOR 201350Z 21004KT M04/M08 A3028 RMK A01 T10411078  RH  075%=      5-min Rain = 0
KNOR 201355Z 21004KT M04/M08 A3028 RMK A01 T10411078  RH  075%=      5-min Rain = 0
KNOR 201400Z 22004KT M04/M08 A3029 RMK A01 T10401078  RH  075%=      5-min Rain = 0
KNOR 201405Z 20003KT M04/M08 A3028 RMK A01 T10391078  RH  074%=      5-min Rain = 0
KNOR 201410Z 19004KT M04/M08 A3028 RMK A01 T10381078  RH  074%=      5-min Rain = 0
KNOR 201415Z 20005KT M04/M08 A3028 RMK A01 T10371076  RH  074%=      5-min Rain = 0
KNOR 201420Z 20006KT M03/M08 A3028 RMK A01 T10341075  RH  074%=      5-min Rain = 0
KNOR 201425Z 20005KT M03/M07 A3028 RMK A01 T10331073  RH  074%=      5-min Rain = 0
KNOR 201430Z 20005KT M03/M07 A3028 RMK A01 T10311071  RH  074%=      5-min Rain = 0
KNOR 201435Z 20005KT M03/M07 A3028 RMK A01 T10281069  RH  073%=      5-min Rain = 0
KNOR 201440Z 21006KT M02/M07 A3028 RMK A01 T10241066  RH  073%=      5-min Rain = 0
KNOR 201445Z 21006KT M02/M07 A3028 RMK A01 T10191065  RH  071%=      5-min Rain = 0
KNOR 201450Z 21007KT M01/M06 A3028 RMK A01 T10141063  RH  069%=      5-min Rain = 0
KNOR 201455Z 20006KT M01/M06 A3028 RMK A01 T10101059  RH  069%=      5-min Rain = 0
KNOR 201500Z 21007KT M01/M06 A3028 RMK A01 T10091061  RH  068%=      5-min Rain = 0
KNOR 201505Z 21007KT M01/M06 A3028 RMK A01 T10071060  RH  067%=      5-min Rain = 0
KNOR 201510Z 21007KT M00/M06 A3028 RMK A01 T10031058  RH  067%=      5-min Rain = 0
KNOR 201515Z 20009KT M00/M06 A3028 RMK A01 T10011060  RH  065%=      5-min Rain = 0
KNOR 201520Z 21008KT 00/M06 A3028 RMK A01 T00021059  RH  064%=      5-min Rain = 0
KNOR 201525Z 20007KT 00/M06 A3028 RMK A01 T00041058  RH  063%=      5-min Rain = 0
KNOR 201530Z 20007KT 01/M06 A3028 RMK A01 T00051057  RH  063%=      5-min Rain = 0
KNOR 201535Z 19008KT 01/M06 A3027 RMK A01 T00071057  RH  062%=      5-min Rain = 0
KNOR 201540Z 20008KT 01/M06 A3027 RMK A01 T00081058  RH  062%=      5-min Rain = 0
KNOR 201545Z 20010KT 01/M06 A3027 RMK A01 T00091061  RH  060%=      5-min Rain = 0
KNOR 201550Z 20010KT 01/M06 A3027 RMK A01 T00091061  RH  060%=      5-min Rain = 0
KNOR 201555Z 20009KT 01/M06 A3026 RMK A01 T00111058  RH  060%=      5-min Rain = 0
KNOR 201600Z 20010KT 01/M06 A3026 RMK A01 T00121060  RH  059%=      5-min Rain = 0
KNOR 201605Z 21008G13KT 02/M06 A3026 RMK A01 T00161057  RH  058%=      5-min Rain = 0
KNOR 201610Z 21009KT 02/M06 A3026 RMK A01 T00201056  RH  057%=      5-min Rain = 0
KNOR 201615Z 20011KT 02/M06 A3026 RMK A01 T00221057  RH  056%=      5-min Rain = 0
KNOR 201620Z 20010KT 02/M06 A3026 RMK A01 T00241056  RH  056%=      5-min Rain = 0
KNOR 201625Z 21010G15KT 03/M06 A3025 RMK A01 T00281055  RH  054%=      5-min Rain = 0
KNOR 201630Z 20009G14KT 03/M05 A3025 RMK A01 T00321053  RH  053%=      5-min Rain = 0
KNOR 201635Z 20011G16KT 03/M06 A3025 RMK A01 T00321055  RH  053%=      5-min Rain = 0
KNOR 201640Z 20012KT 04/M05 A3025 RMK A01 T00371053  RH  052%=      5-min Rain = 0
KNOR 201645Z 20011KT 04/M05 A3025 RMK A01 T00441051  RH  050%=      5-min Rain = 0
KNOR 201650Z 19012KT 05/M05 A3025 RMK A01 T00511050  RH  048%=      5-min Rain = 0
KNOR 201655Z 19011KT 05/M05 A3024 RMK A01 T00531050  RH  048%=      5-min Rain = 0
KNOR 201700Z 19010KT 06/M05 A3024 RMK A01 T00581048  RH  047%=      5-min Rain = 0
KNOR 201705Z 20011G16KT 06/M05 A3024 RMK A01 T00561050  RH  047%=      5-min Rain = 0
KNOR 201710Z 21010KT 06/M05 A3024 RMK A01 T00601048  RH  046%=      5-min Rain = 0
KNOR 201715Z 19009G14KT 06/M05 A3024 RMK A01 T00641046  RH  045%=      5-min Rain = 0
KNOR 201720Z 19010KT 07/M05 A3024 RMK A01 T00661047  RH  044%=      5-min Rain = 0
KNOR 201725Z 18011KT 07/M05 A3023 RMK A01 T00681047  RH  044%=      5-min Rain = 0
KNOR 201730Z 19011KT 07/M05 A3023 RMK A01 T00701046  RH  043%=      5-min Rain = 0
KNOR 201735Z 18009G15KT 08/M04 A3022 RMK A01 T00771044  RH  042%=      5-min Rain = 0
KNOR 201740Z 19009KT 08/M04 A3023 RMK A01 T00811044  RH  041%=      5-min Rain = 0
KNOR 201745Z 18010KT 09/M04 A3022 RMK A01 T00851043  RH  040%=      5-min Rain = 0
KNOR 201750Z 20012KT 09/M04 A3022 RMK A01 T00871044  RH  040%=      5-min Rain = 0
KNOR 201755Z 19010KT 09/M04 A3022 RMK A01 T00901041  RH  039%=      5-min Rain = 0
KNOR 201800Z 18010KT 09/M04 A3022 RMK A01 T00911042  RH  039%=      5-min Rain = 0
KNOR 201805Z 18010KT 10/M04 A3022 RMK A01 T00981040  RH  038%=      5-min Rain = 0
KNOR 201810Z 18010KT 10/M04 A3021 RMK A01 T01011041  RH  037%=      5-min Rain = 0
KNOR 201815Z 17010KT 11/M04 A302 RMK A01 T01081038  RH  036%=      5-min Rain = 0
KNOR 201820Z 17009G14KT 11/M04 A302 RMK A01 T01091040  RH  035%=      5-min Rain = 0
KNOR 201825Z 17010KT 11/M04 A3019 RMK A01 T01121039  RH  035%=      5-min Rain = 0
KNOR 201830Z 18011G17KT 12/M04 A3019 RMK A01 T01181038  RH  034%=      5-min Rain = 0
KNOR 201835Z 18013G18KT 12/M04 A3018 RMK A01 T01241037  RH  032%=      5-min Rain = 0
KNOR 201840Z 18012G17KT 13/M04 A3018 RMK A01 T01281038  RH  031%=      5-min Rain = 0
KNOR 201845Z 19012G17KT 13/M04 A3017 RMK A01 T01271038  RH  032%=      5-min Rain = 0
KNOR 201850Z 18012KT 13/M04 A3017 RMK A01 T01281038  RH  031%=      5-min Rain = 0
KNOR 201855Z 20014G20KT 13/M04 A3017 RMK A01 T01281039  RH  031%=      5-min Rain = 0
KNOR 201900Z 19011G16KT 13/M04 A3017 RMK A01 T01311038  RH  031%=      5-min Rain = 0
KNOR 201905Z 18012G17KT 13/M04 A3016 RMK A01 T01331038  RH  030%=      5-min Rain = 0
KNOR 201910Z 18012G17KT 13/M04 A3016 RMK A01 T01331038  RH  030%=      5-min Rain = 0
KNOR 201915Z 18011G16KT 14/M04 A3016 RMK A01 T01421037  RH  029%=      5-min Rain = 0
KNOR 201920Z 19011G18KT 14/M04 A3015 RMK A01 T01421037  RH  029%=      5-min Rain = 0
KNOR 201925Z 20012KT 15/M04 A3014 RMK A01 T01481038  RH  028%=      5-min Rain = 0
KNOR 201930Z 19012G17KT 15/M04 A3014 RMK A01 T01451040  RH  028%=      5-min Rain = 0
KNOR 201935Z 20011G16KT 14/M04 A3014 RMK A01 T01441040  RH  028%=      5-min Rain = 0
KNOR 201940Z 19012KT 14/M04 A3013 RMK A01 T01421040  RH  028%=      5-min Rain = 0
KNOR 201945Z 19011KT 14/M04 A3013 RMK A01 T01401041  RH  028%=      5-min Rain = 0
KNOR 201950Z 20010KT 14/M04 A3012 RMK A01 T01371040  RH  029%=      5-min Rain = 0
KNOR 201955Z 19010KT 14/M04 A3012 RMK A01 T01421040  RH  028%=      5-min Rain = 0
KNOR 202000Z 19011KT 15/M04 A3012 RMK A01 T01471040  RH  027%=      5-min Rain = 0
KNOR 202005Z 19010G15KT 15/M04 A3012 RMK A01 T01471041  RH  027%=      5-min Rain = 0
KNOR 202010Z 17011G16KT 14/M04 A3012 RMK A01 T01441042  RH  028%=      5-min Rain = 0
KNOR 202015Z 18011KT 15/M04 A3011 RMK A01 T01481041  RH  027%=      5-min Rain = 0
KNOR 202020Z 18009G15KT 15/M04 A3011 RMK A01 T01451043  RH  027%=      5-min Rain = 0
KNOR 202025Z 16009KT 15/M04 A3011 RMK A01 T01451040  RH  028%=      5-min Rain = 0
KNOR 202030Z 15010KT 15/M04 A3011 RMK A01 T01491040  RH  027%=      5-min Rain = 0
KNOR 202035Z 18009G14KT 15/M04 A3011 RMK A01 T01541040  RH  026%=      5-min Rain = 0
KNOR 202040Z 18011G16KT 15/M04 A3011 RMK A01 T01481041  RH  027%=      5-min Rain = 0
KNOR 202045Z 19008G13KT 15/M04 A301 RMK A01 T01541039  RH  026%=      5-min Rain = 0
KNOR 202050Z 20010G16KT 16/M04 A301 RMK A01 T01551040  RH  026%=      5-min Rain = 0
KNOR 202055Z 19011G17KT 15/M04 A301 RMK A01 T01531041  RH  026%=      5-min Rain = 0
KNOR 202100Z 19009G14KT 16/M04 A3009 RMK A01 T01581039  RH  026%=      5-min Rain = 0
KNOR 202105Z 18011KT 16/M04 A3009 RMK A01 T01561040  RH  026%=      5-min Rain = 0
KNOR 202110Z 18011KT 16/M04 A3009 RMK A01 T01561041  RH  026%=      5-min Rain = 0
KNOR 202115Z 17010KT 15/M04 A3008 RMK A01 T01521041  RH  026%=      5-min Rain = 0
KNOR 202120Z 17012KT 15/M04 A3008 RMK A01 T01501040  RH  027%=      5-min Rain = 0
KNOR 202125Z 17011KT 15/M04 A3008 RMK A01 T01521038  RH  027%=      5-min Rain = 0
KNOR 202130Z 16012KT 15/M04 A3008 RMK A01 T01501039  RH  027%=      5-min Rain = 0
KNOR 202135Z 16011KT 14/M04 A3008 RMK A01 T01421039  RH  029%=      5-min Rain = 0
KNOR 202140Z 16012KT 14/M04 A3007 RMK A01 T01381038  RH  029%=      5-min Rain = 0
KNOR 202145Z 16010KT 14/M04 A3007 RMK A01 T01381037  RH  030%=      5-min Rain = 0
KNOR 202150Z 15011KT 14/M04 A3007 RMK A01 T01431036  RH  029%=      5-min Rain = 0
KNOR 202155Z 15012KT 15/M04 A3007 RMK A01 T01511035  RH  028%=      5-min Rain = 0
KNOR 202200Z 16012KT 15/M04 A3007 RMK A01 T01541035  RH  027%=      5-min Rain = 0
KNOR 202205Z 16013KT 15/M04 A3006 RMK A01 T01541035  RH  027%=      5-min Rain = 0
KNOR 202210Z 15012G17KT 15/M04 A3006 RMK A01 T01531035  RH  027%=      5-min Rain = 0
KNOR 202215Z 16012G17KT 16/M03 A3006 RMK A01 T01551034  RH  027%=      5-min Rain = 0
KNOR 202220Z 16012KT 15/M03 A3006 RMK A01 T01511034  RH  028%=      5-min Rain = 0
KNOR 202225Z 17013G19KT 15/M03 A3006 RMK A01 T01501034  RH  028%=      5-min Rain = 0
KNOR 202230Z 17014KT 15/M04 A3006 RMK A01 T01521036  RH  027%=      5-min Rain = 0
KNOR 202235Z 17013G18KT 15/M04 A3006 RMK A01 T01531036  RH  027%=      5-min Rain = 0
KNOR 202240Z 17013G18KT 16/M04 A3006 RMK A01 T01561036  RH  027%=      5-min Rain = 0
KNOR 202245Z 17013KT 15/M04 A3006 RMK A01 T01501036  RH  028%=      5-min Rain = 0
KNOR 202250Z 17013KT 15/M04 A3006 RMK A01 T01461035  RH  028%=      5-min Rain = 0
KNOR 202255Z 17012KT 14/M04 A3006 RMK A01 T01441035  RH  029%=      5-min Rain = 0
KNOR 202300Z 16011G16KT 15/M03 A3006 RMK A01 T01461032  RH  029%=      5-min Rain = 0
KNOR 202305Z 16011KT 14/M03 A3006 RMK A01 T01411031  RH  030%=      5-min Rain = 0
KNOR 202310Z 16012KT 14/M03 A3006 RMK A01 T01421030  RH  030%=      5-min Rain = 0
KNOR 202315Z 16010KT 14/M03 A3006 RMK A01 T01431029  RH  030%=      5-min Rain = 0
KNOR 202320Z 16011KT 14/M03 A3006 RMK A01 T01411029  RH  031%=      5-min Rain = 0
KNOR 202325Z 15011KT 14/M03 A3006 RMK A01 T01381029  RH  031%=      5-min Rain = 0
KNOR 202330Z 15011KT 14/M03 A3006 RMK A01 T01371028  RH  032%=      5-min Rain = 0
KNOR 202335Z 15009KT 14/M03 A3005 RMK A01 T01351028  RH  032%=      5-min Rain = 0
KNOR 202340Z 14010KT 13/M03 A3005 RMK A01 T01311027  RH  033%=      5-min Rain = 0
KNOR 202345Z 14009KT 13/M03 A3005 RMK A01 T01261027  RH  035%=      5-min Rain = 0
KNOR 202350Z 15010KT 12/M03 A3005 RMK A01 T01231026  RH  036%=      5-min Rain = 0
KNOR 202355Z 15009KT 12/M03 A3005 RMK A01 T01201026  RH  036%=      5-min Rain = 0
KNOR 210000Z 15009KT 12/M03 A3005 RMK A01 T01161026  RH  037%=      5-min Rain = 0
KNOR 210005Z 15009KT 11/M03 A3005 RMK A01 T01131026  RH  038%=      5-min Rain = 0
KNOR 210010Z 15010KT 11/M03 A3005 RMK A01 T01091026  RH  039%=      5-min Rain = 0
KNOR 210015Z 15010KT 11/M03 A3005 RMK A01 T01081026  RH  039%=      5-min Rain = 0
KNOR 210020Z 15010KT 11/M03 A3005 RMK A01 T01071026  RH  040%=      5-min Rain = 0
KNOR 210025Z 15010KT 11/M03 A3004 RMK A01 T01051025  RH  040%=      5-min Rain = 0
KNOR 210030Z 15010KT 10/M03 A3005 RMK A01 T01041025  RH  041%=      5-min Rain = 0
KNOR 210035Z 15011KT 10/M03 A3004 RMK A01 T01031025  RH  041%=      5-min Rain = 0
KNOR 210040Z 14010KT 10/M03 A3005 RMK A01 T01021025  RH  041%=      5-min Rain = 0
KNOR 210045Z 14010KT 10/M03 A3005 RMK A01 T01001025  RH  042%=      5-min Rain = 0
KNOR 210050Z 14010KT 10/M03 A3005 RMK A01 T00991025  RH  042%=      5-min Rain = 0
KNOR 210055Z 14010KT 10/M03 A3005 RMK A01 T00971025  RH  043%=      5-min Rain = 0
KNOR 210100Z 13009KT 09/M03 A3005 RMK A01 T00941025  RH  044%=      5-min Rain = 0
KNOR 210105Z 13009KT 09/M02 A3005 RMK A01 T00901024  RH  045%=      5-min Rain = 0
KNOR 210110Z 13010KT 09/M02 A3005 RMK A01 T00881022  RH  046%=      5-min Rain = 0
KNOR 210115Z 13011KT 09/M02 A3005 RMK A01 T00871019  RH  048%=      5-min Rain = 0
KNOR 210120Z 13010KT 09/M02 A3005 RMK A01 T00871016  RH  049%=      5-min Rain = 0
KNOR 210125Z 13010KT 09/M02 A3004 RMK A01 T00861015  RH  049%=      5-min Rain = 0
KNOR 210130Z 13011KT 09/M02 A3004 RMK A01 T00851015  RH  050%=      5-min Rain = 0
KNOR 210135Z 13010KT 08/M02 A3004 RMK A01 T00841015  RH  050%=      5-min Rain = 0
KNOR 210140Z 13010KT 08/M01 A3004 RMK A01 T00841014  RH  050%=      5-min Rain = 0
KNOR 210145Z 13009KT 08/M02 A3004 RMK A01 T00821015  RH  051%=      5-min Rain = 0
KNOR 210150Z 12009KT 08/M02 A3004 RMK A01 T00811015  RH  051%=      5-min Rain = 0
KNOR 210155Z 12009KT 08/M02 A3004 RMK A01 T00791015  RH  052%=      5-min Rain = 0
KNOR 210200Z 12009KT 08/M02 A3004 RMK A01 T00781015  RH  052%=      5-min Rain = 0
KNOR 210205Z 12009KT 08/M02 A3004 RMK A01 T00771015  RH  053%=      5-min Rain = 0
KNOR 210210Z 12008KT 08/M02 A3004 RMK A01 T00761015  RH  053%=      5-min Rain = 0
KNOR 210215Z 12008KT 07/M02 A3004 RMK A01 T00741015  RH  054%=      5-min Rain = 0
KNOR 210220Z 12007KT 07/M02 A3004 RMK A01 T00731015  RH  054%=      5-min Rain = 0
KNOR 210225Z 13008KT 07/M02 A3004 RMK A01 T00711015  RH  055%=      5-min Rain = 0
KNOR 210230Z 13009KT 07/M02 A3003 RMK A01 T00701015  RH  055%=      5-min Rain = 0
KNOR 210235Z 13009KT 07/M02 A3003 RMK A01 T00691016  RH  055%=      5-min Rain = 0
KNOR 210240Z 13009KT 07/M02 A3003 RMK A01 T00661016  RH  056%=      5-min Rain = 0
KNOR 210245Z 13010KT 07/M02 A3003 RMK A01 T00651016  RH  057%=      5-min Rain = 0
KNOR 210250Z 13009KT 06/M02 A3002 RMK A01 T00641016  RH  057%=      5-min Rain = 0
KNOR 210255Z 13010KT 06/M02 A3002 RMK A01 T00621016  RH  058%=      5-min Rain = 0
KNOR 210300Z 13010KT 06/M02 A3002 RMK A01 T00611016  RH  058%=      5-min Rain = 0
KNOR 210305Z 13010KT 06/M02 A3002 RMK A01 T00631016  RH  058%=      5-min Rain = 0
KNOR 210310Z 13010KT 06/M02 A3001 RMK A01 T00621016  RH  058%=      5-min Rain = 0
KNOR 210315Z 13009KT 06/M02 A3001 RMK A01 T00601016  RH  059%=      5-min Rain = 0
KNOR 210320Z 12009KT 06/M02 A3001 RMK A01 T00591016  RH  059%=      5-min Rain = 0
KNOR 210325Z 12009KT 06/M02 A3001 RMK A01 T00591015  RH  059%=      5-min Rain = 0
KNOR 210330Z 12007KT 06/M02 A3001 RMK A01 T00581015  RH  060%=      5-min Rain = 0
KNOR 210335Z 12006KT 06/M02 A3001 RMK A01 T00561015  RH  060%=      5-min Rain = 0
KNOR 210340Z 11005KT 06/M02 A3001 RMK A01 T00551015  RH  061%=      5-min Rain = 0
KNOR 210345Z 11005KT 05/M02 A3001 RMK A01 T00531015  RH  062%=      5-min Rain = 0
KNOR 210350Z 11004KT 05/M02 A3001 RMK A01 T00531016  RH  062%=      5-min Rain = 0
KNOR 210355Z 11004KT 05/M02 A3001 RMK A01 T00511016  RH  062%=      5-min Rain = 0
KNOR 210400Z 12005KT 05/M02 A30 RMK A01 T00501017  RH  063%=      5-min Rain = 0
KNOR 210405Z 13005KT 05/M02 A30 RMK A01 T00511016  RH  063%=      5-min Rain = 0
KNOR 210410Z 15006KT 05/M02 A2999 RMK A01 T00521015  RH  063%=      5-min Rain = 0
KNOR 210415Z 15006KT 05/M02 A2999 RMK A01 T00511015  RH  063%=      5-min Rain = 0
KNOR 210420Z 15006KT 05/M01 A2999 RMK A01 T00531012  RH  063%=      5-min Rain = 0
KNOR 210425Z 15006KT 06/M01 A2999 RMK A01 T00561011  RH  062%=      5-min Rain = 0
KNOR 210430Z 15005KT 06/M01 A2999 RMK A01 T00561011  RH  062%=      5-min Rain = 0
KNOR 210435Z 14005KT 06/M01 A2999 RMK A01 T00561011  RH  062%=      5-min Rain = 0
KNOR 210440Z 12003KT 06/M01 A30 RMK A01 T00551012  RH  063%=      5-min Rain = 0
KNOR 210445Z 11002KT 05/M02 A30 RMK A01 T00481017  RH  063%=      5-min Rain = 0
KNOR 210450Z 13003KT 04/M02 A30 RMK A01 T00421017  RH  066%=      5-min Rain = 0
KNOR 210455Z 14004KT 05/M02 A2999 RMK A01 T00461015  RH  065%=      5-min Rain = 0
KNOR 210500Z 14005KT 05/M01 A2999 RMK A01 T00491013  RH  065%=      5-min Rain = 0
KNOR 210505Z 15005KT 05/M01 A30 RMK A01 T00481014  RH  065%=      5-min Rain = 0
KNOR 210510Z 15004KT 05/M01 A30 RMK A01 T00491013  RH  065%=      5-min Rain = 0
KNOR 210515Z 14003KT 05/M01 A30 RMK A01 T00481013  RH  065%=      5-min Rain = 0
KNOR 210520Z 12003KT 05/M01 A30 RMK A01 T00491013  RH  065%=      5-min Rain = 0
KNOR 210525Z 10003KT 05/M01 A3001 RMK A01 T00481014  RH  065%=      5-min Rain = 0
KNOR 210530Z 05004KT 03/M02 A3001 RMK A01 T00291024  RH  069%=      5-min Rain = 0
KNOR 210535Z 05004KT 02/M02 A3001 RMK A01 T00211024  RH  073%=      5-min Rain = 0
KNOR 210540Z 08003KT 02/M02 A3001 RMK A01 T00201022  RH  074%=      5-min Rain = 0
KNOR 210545Z 08004KT 02/M02 A3001 RMK A01 T00201022  RH  075%=      5-min Rain = 0
KNOR 210550Z 10005KT 02/M02 A30 RMK A01 T00221020  RH  075%=      5-min Rain = 0
KNOR 210555Z 10005KT 02/M02 A30 RMK A01 T00241019  RH  074%=      5-min Rain = 0

Page generated in 0.0093 seconds.